createdAt,value
2023-02-03T00:01:13.102Z,100854.78
2023-02-03T00:03:44.440Z,100868.84
2023-02-03T00:06:11.062Z,100861.81
2023-02-03T00:08:38.342Z,100874.94
2023-02-03T00:11:07.311Z,100875.16
2023-02-03T00:13:35.161Z,100881.41
2023-02-03T00:16:03.407Z,100888.56
2023-02-03T00:18:32.929Z,100893.31
2023-02-03T00:21:06.494Z,100893.88
2023-02-03T00:23:41.176Z,100899.34
2023-02-03T00:26:12.259Z,100905.91
2023-02-03T00:28:45.633Z,100912.50
2023-02-03T00:31:25.024Z,100912.72
2023-02-03T00:33:56.031Z,100910.28
2023-02-03T00:36:26.405Z,100913.59
2023-02-03T00:38:54.274Z,100912.63
2023-02-03T00:41:25.009Z,100917.97
2023-02-03T00:43:54.718Z,100928.22
2023-02-03T00:46:22.486Z,100931.69
2023-02-03T00:48:51.494Z,100929.09
2023-02-03T00:51:27.505Z,100938.34
2023-02-03T00:53:54.491Z,100938.88
2023-02-03T00:56:30.642Z,100948.13
2023-02-03T00:59:11.086Z,100944.91
2023-02-03T01:01:40.014Z,100938.31
2023-02-03T01:04:07.549Z,100950.94
2023-02-03T01:06:38.402Z,100947.53
2023-02-03T01:09:07.633Z,100946.75
2023-02-03T01:11:39.862Z,100966.41
2023-02-03T01:14:08.819Z,100966.41
2023-02-03T01:16:40.541Z,100969.63
2023-02-03T01:19:07.232Z,100972.84
2023-02-03T01:21:37.243Z,100968.28
2023-02-03T01:24:07.136Z,100978.19
2023-02-03T01:26:39.685Z,100971.84
2023-02-03T01:29:10.573Z,100970.59
2023-02-03T01:31:39.919Z,100981.84
2023-02-03T01:34:13.960Z,100984.19
2023-02-03T01:36:43.902Z,100989.16
2023-02-03T01:39:10.640Z,100990.28
2023-02-03T01:41:38.563Z,100986.28
2023-02-03T01:44:25.157Z,100988.75
2023-02-03T01:46:53.546Z,100997.47
2023-02-03T01:49:28.017Z,100991.31
2023-02-03T01:51:54.847Z,100994.94
2023-02-03T01:54:30.124Z,101004.06
2023-02-03T01:56:58.930Z,101012.53
2023-02-03T01:59:28.225Z,101008.75
2023-02-03T02:01:59.862Z,101008.50
2023-02-03T02:04:31.924Z,101003.56
2023-02-03T02:07:01.917Z,101010.53
2023-02-03T02:09:35.878Z,101009.28
2023-02-03T02:12:05.457Z,101011.97
2023-02-03T02:14:39.401Z,101010.84
2023-02-03T02:17:27.312Z,101011.84
2023-02-03T02:20:15.350Z,100996.50
2023-02-03T02:23:07.875Z,100994.75
2023-02-03T02:25:54.096Z,101005.00
2023-02-03T02:28:47.838Z,101008.09
2023-02-03T02:31:47.919Z,101001.59
2023-02-03T02:34:30.078Z,101008.03
2023-02-03T02:37:12.112Z,100997.97
2023-02-03T02:39:49.981Z,101004.22
2023-02-03T02:42:30.902Z,101009.66
2023-02-03T02:45:14.467Z,101010.66
2023-02-03T02:47:48.802Z,101010.97
2023-02-03T02:50:27.415Z,101009.28
2023-02-03T02:53:00.012Z,101016.28
2023-02-03T02:55:44.370Z,101022.19
2023-02-03T02:58:23.238Z,101025.94
2023-02-03T03:00:53.426Z,101022.09
2023-02-03T03:03:23.612Z,101022.84
2023-02-03T03:06:10.120Z,101031.00
2023-02-03T03:09:04.323Z,101019.78
2023-02-03T03:11:35.251Z,101026.44
2023-02-03T03:14:14.955Z,101026.66
2023-02-03T03:16:46.183Z,101030.25
2023-02-03T03:19:18.364Z,101021.72
2023-02-03T03:21:47.855Z,101028.03
2023-02-03T03:24:19.495Z,101029.94
2023-02-03T03:26:55.473Z,101029.53
2023-02-03T03:29:23.566Z,101029.34
2023-02-03T03:31:54.332Z,101030.25
2023-02-03T03:34:26.036Z,101026.19
2023-02-03T03:37:20.711Z,101022.19
2023-02-03T03:39:53.614Z,101015.66
2023-02-03T03:42:33.753Z,101008.22
2023-02-03T03:45:07.047Z,101015.09
2023-02-03T03:47:42.770Z,100994.41
2023-02-03T03:50:12.025Z,101009.16
2023-02-03T03:52:41.186Z,101014.97
2023-02-03T03:55:09.655Z,101011.47
2023-02-03T03:57:46.965Z,101008.69
2023-02-03T04:00:14.885Z,101008.69
2023-02-03T04:02:41.830Z,101003.28
2023-02-03T04:05:08.929Z,101013.22
2023-02-03T04:07:40.941Z,101002.84
2023-02-03T04:10:29.796Z,100994.53
2023-02-03T04:12:56.625Z,101007.81
2023-02-03T04:15:23.473Z,101004.34
2023-02-03T04:17:50.241Z,101002.84
2023-02-03T04:20:16.971Z,100996.38
2023-02-03T04:22:46.049Z,101000.19
2023-02-03T04:25:12.755Z,100990.94
2023-02-03T04:27:42.057Z,100986.38
2023-02-03T04:30:09.000Z,100982.59
2023-02-03T04:32:35.797Z,100986.53
2023-02-03T04:35:06.133Z,100989.94
2023-02-03T04:37:32.936Z,100983.75
2023-02-03T04:40:01.289Z,100993.47
2023-02-03T04:42:30.234Z,100982.41
2023-02-03T04:44:57.071Z,100988.41
2023-02-03T04:47:23.740Z,100977.56
2023-02-03T04:49:50.449Z,100985.66
2023-02-03T04:52:17.046Z,100979.78
2023-02-03T04:54:43.697Z,100970.91
2023-02-03T04:57:10.365Z,100971.25
2023-02-03T04:59:36.965Z,100968.84
2023-02-03T05:02:05.925Z,100962.66
2023-02-03T05:04:32.643Z,100974.25
2023-02-03T05:06:59.364Z,100972.38
2023-02-03T05:09:28.891Z,100962.72
2023-02-03T05:11:57.906Z,100961.50
2023-02-03T05:14:24.707Z,100963.84
2023-02-03T05:16:51.596Z,100965.84
2023-02-03T05:19:24.111Z,100963.09
2023-02-03T05:21:51.422Z,100967.19
2023-02-03T05:24:18.442Z,100977.22
2023-02-03T05:26:50.484Z,100970.44
2023-02-03T05:29:21.892Z,100977.69
2023-02-03T05:31:49.747Z,100974.16
2023-02-03T05:34:18.712Z,100979.03
2023-02-03T05:36:50.074Z,100974.00
2023-02-03T05:39:19.645Z,100975.25
2023-02-03T05:41:58.884Z,100986.41
2023-02-03T05:44:28.523Z,100983.16
2023-02-03T05:46:59.292Z,100983.25
2023-02-03T05:49:30.803Z,100991.06
2023-02-03T05:51:57.877Z,100993.63
2023-02-03T05:54:32.458Z,100989.63
2023-02-03T05:56:59.934Z,100993.53
2023-02-03T05:59:28.016Z,100999.91
2023-02-03T06:01:55.421Z,100995.53
2023-02-03T06:04:23.335Z,101003.81
2023-02-03T06:06:50.597Z,100995.78
2023-02-03T06:09:17.823Z,100989.97
2023-02-03T06:11:44.611Z,100993.63
2023-02-03T06:14:13.597Z,100994.06
2023-02-03T06:16:42.724Z,100985.16
2023-02-03T06:19:09.765Z,100988.63
2023-02-03T06:21:36.914Z,100989.59
2023-02-03T06:24:05.279Z,100998.78
2023-02-03T06:26:37.336Z,101001.09
2023-02-03T06:29:04.609Z,100994.84
2023-02-03T06:31:31.658Z,100994.31
2023-02-03T06:33:59.722Z,100997.97
2023-02-03T06:36:32.470Z,100984.94
2023-02-03T06:39:01.968Z,101000.13
2023-02-03T06:41:30.848Z,100999.13
2023-02-03T06:43:58.009Z,101004.03
2023-02-03T06:46:29.966Z,101003.91
2023-02-03T06:48:57.260Z,101004.38
2023-02-03T06:51:25.160Z,101006.91
2023-02-03T06:53:52.641Z,101007.13
2023-02-03T06:56:22.675Z,101008.06
2023-02-03T06:58:49.915Z,101005.72
2023-02-03T07:01:20.183Z,101008.47
2023-02-03T07:03:47.695Z,101003.53
2023-02-03T07:06:14.951Z,100998.88
2023-02-03T07:08:41.972Z,101003.31
2023-02-03T07:11:09.218Z,100998.94
2023-02-03T07:13:36.428Z,101004.16
2023-02-03T07:16:03.529Z,100992.50
2023-02-03T07:18:46.364Z,100996.00
2023-02-03T07:21:15.265Z,100987.47
2023-02-03T07:23:42.139Z,100996.06
2023-02-03T07:26:09.822Z,101001.03
2023-02-03T07:28:37.054Z,100999.59
2023-02-03T07:31:04.951Z,101001.59
2023-02-03T07:33:31.985Z,100994.59
2023-02-03T07:35:59.741Z,101000.16
2023-02-03T07:38:27.578Z,101001.13
2023-02-03T07:40:54.251Z,101007.50
2023-02-03T07:43:20.913Z,101004.94
2023-02-03T07:45:47.640Z,101012.28
2023-02-03T07:48:19.456Z,101015.75
2023-02-03T07:50:47.798Z,101018.22
2023-02-03T07:53:14.791Z,101016.03
2023-02-03T07:55:41.456Z,101009.16
2023-02-03T07:58:08.049Z,101013.41
2023-02-03T08:00:34.685Z,101029.22
2023-02-03T08:03:06.333Z,101027.22
2023-02-03T08:05:32.955Z,101030.00
2023-02-03T08:07:59.608Z,101032.31
2023-02-03T08:10:29.317Z,101020.19
2023-02-03T08:12:58.837Z,101017.50
2023-02-03T08:15:28.003Z,101025.75
2023-02-03T08:17:56.697Z,101025.41
2023-02-03T08:20:25.588Z,101021.56
2023-02-03T08:22:53.106Z,101020.59
2023-02-03T08:25:22.472Z,101025.50
2023-02-03T08:27:49.636Z,101021.31
2023-02-03T08:30:19.385Z,101022.56
2023-02-03T08:32:48.606Z,101033.28
2023-02-03T08:35:18.437Z,101029.16
2023-02-03T08:37:47.411Z,101036.16
2023-02-03T08:40:19.804Z,101033.28
2023-02-03T08:42:48.710Z,101028.66
2023-02-03T08:45:20.237Z,101027.25
2023-02-03T08:47:49.069Z,101031.50
2023-02-03T08:50:15.930Z,101035.38
2023-02-03T08:52:50.187Z,101032.34
2023-02-03T08:55:18.985Z,101036.03
2023-02-03T08:57:45.970Z,101038.75
2023-02-03T09:00:18.697Z,101040.91
2023-02-03T09:02:45.756Z,101044.56
2023-02-03T09:05:12.668Z,101047.44
2023-02-03T09:07:42.103Z,101035.53
2023-02-03T09:10:11.516Z,101031.63
2023-02-03T09:12:43.105Z,101035.84
2023-02-03T09:15:10.153Z,101036.50
2023-02-03T09:17:39.231Z,101046.81
2023-02-03T09:20:09.090Z,101041.94
2023-02-03T09:22:35.700Z,101046.53
2023-02-03T09:25:06.174Z,101049.91
2023-02-03T09:27:33.101Z,101049.59
2023-02-03T09:30:02.192Z,101050.06
2023-02-03T09:32:28.895Z,101047.56
2023-02-03T09:34:58.174Z,101037.19
2023-02-03T09:37:25.395Z,101039.41
2023-02-03T09:39:53.689Z,101026.19
2023-02-03T09:49:59.042Z,101004.28
2023-02-03T09:52:29.339Z,100999.69
2023-02-03T09:55:16.438Z,100999.66
2023-02-03T09:57:44.674Z,100986.94
2023-02-03T10:00:45.075Z,100982.38
2023-02-03T10:03:14.460Z,100978.75
2023-02-03T10:05:43.983Z,100970.97
2023-02-03T10:08:13.623Z,100957.78
2023-02-03T10:11:09.937Z,100950.69
2023-02-03T10:13:52.098Z,100935.25
2023-02-03T10:16:24.845Z,100930.34
2023-02-03T10:18:54.871Z,100932.34
2023-02-03T10:21:36.574Z,100926.09
2023-02-03T10:24:04.516Z,100915.53
2023-02-03T10:26:31.326Z,100907.38
2023-02-03T10:28:58.716Z,100899.03
2023-02-03T10:31:29.082Z,100889.22
2023-02-03T10:34:00.784Z,100892.34
2023-02-03T10:36:33.178Z,100882.19
2023-02-03T10:39:07.086Z,100883.63
2023-02-03T10:41:36.783Z,100880.06
2023-02-03T10:44:04.270Z,100875.50
2023-02-03T10:46:37.570Z,100863.56
2023-02-03T10:49:04.255Z,100858.78
2023-02-03T10:51:51.155Z,100858.13
2023-02-03T10:54:36.986Z,100849.50
2023-02-03T10:57:07.539Z,100848.16
2023-02-03T10:59:37.658Z,100836.47
2023-02-03T11:02:08.790Z,100828.38
2023-02-03T11:04:38.606Z,100826.38
2023-02-03T11:07:06.996Z,100825.81
2023-02-03T11:09:37.602Z,100813.44
2023-02-03T11:12:14.594Z,100817.81
2023-02-03T11:14:44.253Z,100797.09
2023-02-03T11:17:29.985Z,100797.22
2023-02-03T11:20:00.228Z,100792.84
2023-02-03T11:22:27.948Z,100790.41
2023-02-03T11:24:54.537Z,100796.09
2023-02-03T11:27:22.852Z,100783.59
2023-02-03T11:29:50.751Z,100765.34
2023-02-03T11:32:22.544Z,100756.56
2023-02-03T11:35:02.544Z,100740.97
2023-02-03T11:37:34.234Z,100745.31
2023-02-03T11:40:06.795Z,100746.09
2023-02-03T11:42:34.479Z,100737.38
2023-02-03T11:45:14.844Z,100730.50
2023-02-03T11:47:50.543Z,100723.94
2023-02-03T11:50:26.097Z,100723.94
2023-02-03T11:52:52.855Z,100712.16
2023-02-03T11:55:27.310Z,100704.09
2023-02-03T11:58:00.264Z,100702.19
2023-02-03T12:00:31.536Z,100683.16
2023-02-03T12:03:14.228Z,100678.84
2023-02-03T12:06:02.683Z,100678.94
2023-02-03T12:08:36.645Z,100662.59
2023-02-03T12:11:15.310Z,100659.38
2023-02-03T12:13:54.318Z,100649.38
2023-02-03T12:16:39.842Z,100650.28
2023-02-03T12:19:10.195Z,100642.94
2023-02-03T12:21:44.388Z,100630.38
2023-02-03T12:24:11.140Z,100626.94
2023-02-03T12:26:46.376Z,100611.13
2023-02-03T12:29:14.644Z,100606.78
2023-02-03T12:32:01.577Z,100589.34
2023-02-03T12:34:28.229Z,100582.69
2023-02-03T12:37:00.267Z,100572.66
2023-02-03T12:39:28.641Z,100572.88
2023-02-03T12:42:00.738Z,100571.09
2023-02-03T12:44:39.518Z,100567.88
2023-02-03T12:47:24.600Z,100549.75
2023-02-03T12:49:53.708Z,100535.75
2023-02-03T12:52:23.051Z,100533.97
2023-02-03T12:54:52.881Z,100535.44
2023-02-03T12:57:38.503Z,100519.84
2023-02-03T13:00:14.185Z,100519.72
2023-02-03T13:03:02.301Z,100507.03
2023-02-03T13:05:44.215Z,100492.13
2023-02-03T13:08:17.976Z,100493.16
2023-02-03T13:10:51.890Z,100482.81
2023-02-03T13:13:37.853Z,100482.03
2023-02-03T13:16:40.622Z,100468.38
2023-02-03T13:19:11.143Z,100470.72
2023-02-03T13:21:38.014Z,100457.41
2023-02-03T13:24:06.035Z,100462.19
2023-02-03T13:26:38.758Z,100456.97
2023-02-03T13:29:14.929Z,100445.72
2023-02-03T13:32:06.699Z,100453.25
2023-02-03T13:34:38.684Z,100437.84
2023-02-03T13:37:30.254Z,100435.56
2023-02-03T13:40:16.041Z,100422.50
2023-02-03T13:42:59.203Z,100415.63
2023-02-03T13:45:33.005Z,100413.19
2023-02-03T13:48:18.890Z,100411.88
2023-02-03T13:50:51.188Z,100404.59
2023-02-03T13:53:24.063Z,100395.91
2023-02-03T13:55:57.500Z,100399.72
2023-02-03T13:58:44.075Z,100397.66
2023-02-03T14:01:32.509Z,100385.53
2023-02-03T14:04:04.990Z,100373.78
2023-02-03T14:06:39.662Z,100380.06
2023-02-03T14:09:29.621Z,100381.16
2023-02-03T14:12:19.431Z,100373.66
2023-02-03T14:14:55.952Z,100376.22
2023-02-03T14:17:37.179Z,100372.78
2023-02-03T14:20:28.761Z,100368.31
2023-02-03T14:22:59.981Z,100367.53
2023-02-03T14:25:36.921Z,100353.78
2023-02-03T14:28:12.288Z,100356.81
2023-02-03T14:31:03.517Z,100344.91
2023-02-03T14:33:51.034Z,100341.75
2023-02-03T14:36:39.530Z,100347.19
2023-02-03T14:39:23.674Z,100343.81
2023-02-03T14:42:01.014Z,100329.13
2023-02-03T14:44:49.013Z,100331.88
2023-02-03T14:47:18.651Z,100316.53
2023-02-03T14:50:03.338Z,100323.63
2023-02-03T14:52:36.116Z,100315.56
2023-02-03T14:55:21.323Z,100308.06
2023-02-03T14:57:53.538Z,100306.66
2023-02-03T15:00:24.503Z,100312.38
2023-02-03T15:03:06.963Z,100304.00
2023-02-03T15:05:40.362Z,100292.13
2023-02-03T15:08:27.939Z,100288.72
2023-02-03T15:10:55.463Z,100271.66
2023-02-03T15:17:44.844Z,100255.00
2023-02-03T15:20:39.811Z,100263.59
2023-02-03T15:23:29.658Z,100258.56
2023-02-03T15:26:09.360Z,100251.88
2023-02-03T15:28:41.513Z,100244.47
2023-02-03T15:31:59.668Z,100248.81
2023-02-03T15:37:35.541Z,100231.91
2023-02-03T15:40:24.210Z,100252.66
2023-02-03T15:43:02.781Z,100237.09
2023-02-03T15:45:46.162Z,100244.03
2023-02-03T15:48:42.636Z,100241.25
2023-02-03T15:51:12.383Z,100237.03
2023-02-03T15:53:48.352Z,100228.25
2023-02-03T15:56:29.684Z,100222.13
2023-02-03T15:58:59.329Z,100215.44
2023-02-03T16:01:28.477Z,100226.09
2023-02-03T16:04:05.296Z,100248.56
2023-02-03T16:06:38.383Z,100218.94
2023-02-03T16:09:07.114Z,100225.81
2023-02-03T16:11:34.942Z,100221.09
2023-02-03T16:14:11.267Z,100216.44
2023-02-03T16:17:05.353Z,100221.88
2023-02-03T16:19:38.274Z,100198.72
2023-02-03T16:22:05.404Z,100191.06
2023-02-03T16:24:43.035Z,100182.88
2023-02-03T16:27:33.203Z,100179.25
2023-02-03T16:30:38.746Z,100179.25
2023-02-03T16:33:27.147Z,100172.75
2023-02-03T16:36:15.651Z,100165.84
2023-02-03T16:39:10.117Z,100160.25
2023-02-03T16:41:55.531Z,100157.69
2023-02-03T16:44:40.896Z,100136.44
2023-02-03T16:47:55.551Z,100135.16
2023-02-03T16:50:42.476Z,100129.63
2023-02-03T16:53:13.223Z,100125.72
2023-02-03T16:55:40.130Z,100125.31
2023-02-03T16:58:11.405Z,100101.50
2023-02-03T17:00:42.074Z,100106.75
2023-02-03T17:03:13.117Z,100094.44
2023-02-03T17:05:40.338Z,100083.97
2023-02-03T17:08:07.079Z,100072.06
2023-02-03T17:10:34.814Z,100071.13
2023-02-03T17:13:07.103Z,100064.22
2023-02-03T17:15:36.165Z,100060.63
2023-02-03T17:18:05.174Z,100050.44
2023-02-03T17:20:32.042Z,100051.06
2023-02-03T17:23:01.631Z,100048.28
2023-02-03T17:25:32.581Z,100038.38
2023-02-03T17:27:59.443Z,100054.50
2023-02-03T17:30:29.445Z,100061.47
2023-02-03T17:32:59.050Z,100019.63
2023-02-03T17:35:25.962Z,100013.16
2023-02-03T17:37:53.008Z,100020.44
2023-02-03T17:54:14.581Z,99989.75
2023-02-03T17:56:47.618Z,99991.59
2023-02-03T17:59:15.712Z,99994.56
2023-02-03T18:01:42.332Z,99996.34
2023-02-03T18:04:11.529Z,99995.00
2023-02-03T18:06:38.511Z,99986.97
2023-02-03T18:09:08.150Z,99983.75
2023-02-03T18:11:37.773Z,99975.16
2023-02-03T18:14:10.572Z,99970.97
2023-02-03T18:16:37.206Z,99984.25
2023-02-03T18:19:05.379Z,99968.00
2023-02-03T18:21:32.666Z,99972.94
2023-02-03T18:24:02.023Z,99943.69
2023-02-03T18:26:34.522Z,99936.66
2023-02-03T18:29:01.159Z,99933.19
2023-02-03T18:31:27.839Z,99947.75
2023-02-03T18:33:56.815Z,99932.00
2023-02-03T18:36:25.742Z,99932.16
2023-02-03T18:38:52.408Z,99937.31
2023-02-03T18:41:23.198Z,99930.97
2023-02-03T18:43:49.920Z,99950.13
2023-02-03T18:46:23.706Z,99934.22
2023-02-03T18:48:54.939Z,99941.91
2023-02-03T18:51:24.657Z,99959.41
2023-02-03T18:53:51.283Z,99948.22
2023-02-03T18:56:22.546Z,99961.34
2023-02-03T18:58:52.042Z,99944.00
2023-02-03T19:01:22.411Z,99936.63
2023-02-03T19:03:54.205Z,99925.06
2023-02-03T19:06:20.915Z,99947.56
2023-02-03T19:08:47.562Z,99937.50
2023-02-03T19:11:14.379Z,99912.38
2023-02-03T19:13:41.236Z,99908.56
2023-02-03T19:16:08.462Z,99902.94
2023-02-03T19:18:36.255Z,99904.31
2023-02-03T19:21:05.657Z,99920.59
2023-02-03T19:23:35.191Z,99905.84
2023-02-03T19:26:06.751Z,99901.44
2023-02-03T19:28:37.213Z,99900.63
2023-02-03T19:31:08.760Z,99923.88
2023-02-03T19:33:40.889Z,99910.81
2023-02-03T19:36:12.511Z,99905.03
2023-02-03T19:38:39.077Z,99898.28
2023-02-03T19:41:07.176Z,99910.97
2023-02-03T19:43:33.832Z,99910.00
2023-02-03T19:46:03.058Z,99914.56
2023-02-03T19:48:29.689Z,99919.63
2023-02-03T19:50:56.402Z,99910.16
2023-02-03T19:53:24.495Z,99909.59
2023-02-03T19:55:51.462Z,99906.72
2023-02-03T19:58:18.273Z,99908.31
2023-02-03T20:00:44.978Z,99912.34
2023-02-03T20:03:11.646Z,99920.69
2023-02-03T20:05:38.372Z,99932.94
2023-02-03T20:08:07.326Z,99932.63
2023-02-03T20:10:36.881Z,99943.81
2023-02-03T20:13:03.474Z,99949.81
2023-02-03T20:15:30.129Z,99937.47
2023-02-03T20:17:59.160Z,99937.47
2023-02-03T20:20:25.824Z,99936.50
2023-02-03T20:22:52.406Z,99934.56
2023-02-03T20:25:22.266Z,99930.38
2023-02-03T20:27:49.396Z,99937.13
2023-02-03T20:30:16.181Z,99931.84
2023-02-03T20:32:45.101Z,99936.31
2023-02-03T20:35:12.702Z,99920.69
2023-02-03T20:37:39.392Z,99923.97
2023-02-03T20:40:15.722Z,99909.38
2023-02-03T20:42:42.669Z,99912.72
2023-02-03T20:45:13.437Z,99912.84
2023-02-03T20:47:42.435Z,99892.63
2023-02-03T20:50:11.441Z,99880.34
2023-02-03T20:52:43.521Z,99861.72
2023-02-03T20:55:18.364Z,99868.53
2023-02-03T20:57:45.408Z,99857.63
2023-02-03T21:00:15.675Z,99841.94
2023-02-03T21:03:01.103Z,99857.72
2023-02-03T21:05:28.473Z,99855.00
2023-02-03T21:07:57.524Z,99863.22
2023-02-03T21:10:27.085Z,99852.97
2023-02-03T21:12:53.840Z,99865.75
2023-02-03T21:15:27.458Z,99862.34
2023-02-03T21:17:56.690Z,99869.41
2023-02-03T21:20:28.978Z,99865.00
2023-02-03T21:22:56.078Z,99862.50
2023-02-03T21:25:29.332Z,99851.44
2023-02-03T21:27:58.204Z,99856.56
2023-02-03T21:30:28.024Z,99866.94
2023-02-03T21:32:54.927Z,99871.16
2023-02-03T21:35:24.144Z,99863.63
2023-02-03T21:37:57.191Z,99879.28
2023-02-03T21:40:28.502Z,99881.84
2023-02-03T21:42:55.449Z,99900.69
2023-02-03T21:45:24.203Z,99914.47
2023-02-03T21:47:53.328Z,99912.00
2023-02-03T21:50:28.541Z,99899.72
2023-02-03T21:52:55.781Z,99910.00
2023-02-03T21:55:22.443Z,99905.03
2023-02-03T21:57:51.538Z,99900.75
2023-02-03T22:00:37.138Z,99895.72
2023-02-03T22:03:08.265Z,99896.59
2023-02-03T22:05:37.721Z,99890.00
2023-02-03T22:08:13.251Z,99911.66
2023-02-03T22:10:40.306Z,99934.63
2023-02-03T22:13:09.344Z,99927.00
2023-02-03T22:15:38.376Z,99918.19
2023-02-03T22:18:04.982Z,99937.75
2023-02-03T22:20:33.937Z,99934.25
2023-02-03T22:23:02.774Z,99936.88
2023-02-03T22:25:32.046Z,99948.69
2023-02-03T22:27:58.703Z,99954.78
2023-02-03T22:30:27.918Z,99946.50
2023-02-03T22:32:58.145Z,99950.91
2023-02-03T22:35:25.307Z,99967.94
2023-02-03T22:37:54.019Z,99964.47
2023-02-03T22:40:21.525Z,99955.72
2023-02-03T22:42:53.266Z,99974.13
2023-02-03T22:45:20.169Z,99984.28
2023-02-03T22:47:50.337Z,99983.41
2023-02-03T22:50:34.496Z,99984.22
2023-02-03T22:53:04.373Z,99983.25
2023-02-03T22:55:31.205Z,99973.84
2023-02-03T22:58:00.196Z,99981.50
2023-02-03T23:00:29.664Z,99967.78
2023-02-03T23:02:56.548Z,99975.66
2023-02-03T23:05:28.635Z,99980.78
2023-02-03T23:07:57.573Z,99972.59
2023-02-03T23:10:25.644Z,99961.34
2023-02-03T23:12:52.365Z,99969.19
2023-02-03T23:15:19.090Z,99954.66
2023-02-03T23:17:48.269Z,99947.09
2023-02-03T23:20:15.486Z,99950.50
2023-02-03T23:22:42.317Z,99940.13
2023-02-03T23:25:11.480Z,99943.72
2023-02-03T23:27:42.991Z,99954.41
2023-02-03T23:30:12.476Z,99934.78
2023-02-03T23:32:41.240Z,99946.59
2023-02-03T23:35:43.393Z,99920.91
2023-02-03T23:38:09.961Z,99915.50
2023-02-03T23:40:36.500Z,99934.28
2023-02-03T23:43:03.215Z,99935.03
2023-02-03T23:45:32.817Z,99931.22
2023-02-03T23:48:01.948Z,99917.03
2023-02-03T23:50:28.938Z,99922.78
2023-02-03T23:52:55.767Z,99927.31
2023-02-03T23:55:24.893Z,99912.72
2023-02-03T23:57:53.959Z,99914.41
